Impacts METAR Board
IDs:

KCFD - Bryan/Coulter Fld, TX, US

Updated at: 2100 UTC 19 Apr 2021
Potential Impact None Slight Moderate High
Time 19/09Z 19/10Z 19/11Z 19/12Z 19/13Z 19/14Z 19/15Z 19/16Z 19/17Z 19/18Z 19/19Z 19/20Z 19/21Z
Temp50 47 47 49 51 56 60 65 67 68 69 70 72
Dewpt44 44 46 46 47 49 49 43 40 40 38 40 42
Altim30.08 30.10 30.12 30.13 30.14 30.14 30.14 30.13 30.12 30.09 30.07 30.03 30.00
VIS10 10 10 10 10 10 10 10 10 10 10 5 3
CIG-- -- 110 120 -- -- -- -- -- -- -- -- --
CoverCLRCLROVCOVCSCTSCTCLRCLRCLRCLRCLRCLRCLR
FltCatVFRVFRVFRVFRVFRVFRVFRVFRVFRVFRVFRMVFRMVFR
WX----------------------HZHZ
WDir0000029032000300280060
WSpd0 0 0 0 0 3 3 0 0 3 3 0 5
WGst-- -- -- -- -- -- -- -- -- -- -- -- --
Raw hourly METARs
KCFD 190855Z AUTO 00000KT 10SM CLR 10/07 A3008 RMK AO2 T01000065
KCFD 190955Z AUTO 00000KT 10SM CLR 09/07 A3010 RMK AO2 T00860069
KCFD 191055Z AUTO 00000KT 10SM OVC110 08/08 A3012 RMK AO2 T00840079
KCFD 191155Z AUTO 00000KT 10SM OVC120 09/08 A3013 RMK AO2 T00940080 10106 20071
KCFD 191255Z AUTO 00000KT 10SM SCT110 11/08 A3014 RMK AO2 T01070081
KCFD 191355Z AUTO 29003KT 10SM SCT110 13/09 A3014 RMK AO2 T01310093
KCFD 191455Z AUTO 32003KT 10SM CLR 15/09 A3014 RMK AO2 T01540093
KCFD 191555Z AUTO 00000KT 10SM CLR 18/06 A3013 RMK AO2 T01830061
KCFD 191655Z AUTO 00000KT 10SM CLR 20/04 A3012 RMK AO2 T01960043
KCFD 191755Z AUTO 30003KT 10SM CLR 20/05 A3009 RMK AO2 T01980047 10203 20090
KCFD 191855Z AUTO 28003KT 10SM CLR 21/03 A3007 RMK AO2 T02070034
KCFD 191955Z AUTO 00000KT 5SM HZ CLR 21/05 A3003 RMK AO2 T02100045
KCFD 192055Z AUTO 06005KT 3SM HZ CLR 22/06 A3000 RMK AO2 T02210055



Page loaded:  21:39 UTC  |   02:39 PM Pacific  |   03:39 PM Mountain  |   04:39 PM Central  |   05:39 PM Eastern

 

ADVISORIES

FORECASTS

FORECASTS

OBSERVATIONS

USER TOOLS

ABOUT US